sensor_id;sensor_type;location;lat;lon;timestamp;temperature;humidity
48998;DHT22;34807;51.456;7.244;2023-12-07T00:01:33;3.50;99.90
48998;DHT22;34807;51.456;7.244;2023-12-07T00:04:00;3.50;99.90
48998;DHT22;34807;51.456;7.244;2023-12-07T00:06:25;3.50;99.90
48998;DHT22;34807;51.456;7.244;2023-12-07T00:08:51;3.50;99.90
48998;DHT22;34807;51.456;7.244;2023-12-07T00:11:17;3.50;99.90
48998;DHT22;34807;51.456;7.244;2023-12-07T00:13:42;3.50;99.90
48998;DHT22;34807;51.456;7.244;2023-12-07T00:16:08;3.50;99.90
48998;DHT22;34807;51.456;7.244;2023-12-07T00:18:33;3.50;99.90
48998;DHT22;34807;51.456;7.244;2023-12-07T00:20:59;3.50;99.90
48998;DHT22;34807;51.456;7.244;2023-12-07T00:23:24;3.50;99.90
48998;DHT22;34807;51.456;7.244;2023-12-07T00:25:50;3.50;99.90
48998;DHT22;34807;51.456;7.244;2023-12-07T00:28:16;3.50;99.90
48998;DHT22;34807;51.456;7.244;2023-12-07T00:30:41;3.50;99.90
48998;DHT22;34807;51.456;7.244;2023-12-07T00:33:07;3.50;99.90
48998;DHT22;34807;51.456;7.244;2023-12-07T00:35:34;3.50;99.90
48998;DHT22;34807;51.456;7.244;2023-12-07T00:38:00;3.50;99.90
48998;DHT22;34807;51.456;7.244;2023-12-07T00:40:25;3.50;99.90
48998;DHT22;34807;51.456;7.244;2023-12-07T00:42:51;3.50;99.90
48998;DHT22;34807;51.456;7.244;2023-12-07T00:45:16;3.50;99.90
48998;DHT22;34807;51.456;7.244;2023-12-07T00:47:42;3.50;99.90
48998;DHT22;34807;51.456;7.244;2023-12-07T00:50:07;3.50;99.90
48998;DHT22;34807;51.456;7.244;2023-12-07T00:52:33;3.50;99.90
48998;DHT22;34807;51.456;7.244;2023-12-07T00:54:59;3.50;99.90
48998;DHT22;34807;51.456;7.244;2023-12-07T00:57:24;3.50;99.90
48998;DHT22;34807;51.456;7.244;2023-12-07T00:59:50;3.50;99.90
48998;DHT22;34807;51.456;7.244;2023-12-07T01:02:15;3.50;99.90
48998;DHT22;34807;51.456;7.244;2023-12-07T01:04:40;3.50;99.90
48998;DHT22;34807;51.456;7.244;2023-12-07T01:07:06;3.50;99.90
48998;DHT22;34807;51.456;7.244;2023-12-07T01:09:33;3.50;99.90
48998;DHT22;34807;51.456;7.244;2023-12-07T01:11:58;3.50;99.90
48998;DHT22;34807;51.456;7.244;2023-12-07T01:14:24;3.50;99.90
48998;DHT22;34807;51.456;7.244;2023-12-07T01:16:49;3.50;99.90
48998;DHT22;34807;51.456;7.244;2023-12-07T01:19:15;3.50;99.90
48998;DHT22;34807;51.456;7.244;2023-12-07T01:21:43;3.50;99.90
48998;DHT22;34807;51.456;7.244;2023-12-07T01:24:09;3.50;99.90
48998;DHT22;34807;51.456;7.244;2023-12-07T01:26:34;3.50;99.90
48998;DHT22;34807;51.456;7.244;2023-12-07T01:29:00;3.50;99.90
48998;DHT22;34807;51.456;7.244;2023-12-07T01:31:26;3.50;99.90
48998;DHT22;34807;51.456;7.244;2023-12-07T01:33:51;3.50;99.90
48998;DHT22;34807;51.456;7.244;2023-12-07T01:36:17;3.50;99.90
48998;DHT22;34807;51.456;7.244;2023-12-07T01:38:42;3.50;99.90
48998;DHT22;34807;51.456;7.244;2023-12-07T01:41:09;3.50;99.90
48998;DHT22;34807;51.456;7.244;2023-12-07T01:43:34;3.50;99.90
48998;DHT22;34807;51.456;7.244;2023-12-07T01:46:00;3.50;99.90
48998;DHT22;34807;51.456;7.244;2023-12-07T01:48:25;3.50;99.90
48998;DHT22;34807;51.456;7.244;2023-12-07T01:50:52;3.50;99.90
48998;DHT22;34807;51.456;7.244;2023-12-07T01:53:17;3.50;99.90
48998;DHT22;34807;51.456;7.244;2023-12-07T01:55:43;3.50;99.90
48998;DHT22;34807;51.456;7.244;2023-12-07T01:58:09;3.50;99.90
48998;DHT22;34807;51.456;7.244;2023-12-07T02:00:35;3.50;99.90
48998;DHT22;34807;51.456;7.244;2023-12-07T02:03:02;3.50;99.90
48998;DHT22;34807;51.456;7.244;2023-12-07T02:05:28;3.50;99.90
48998;DHT22;34807;51.456;7.244;2023-12-07T02:07:54;3.50;99.90
48998;DHT22;34807;51.456;7.244;2023-12-07T02:10:19;3.40;99.90
48998;DHT22;34807;51.456;7.244;2023-12-07T02:12:45;3.40;99.90
48998;DHT22;34807;51.456;7.244;2023-12-07T02:15:11;3.40;99.90
48998;DHT22;34807;51.456;7.244;2023-12-07T02:22:37;3.40;99.90
48998;DHT22;34807;51.456;7.244;2023-12-07T02:25:05;3.40;99.90
48998;DHT22;34807;51.456;7.244;2023-12-07T02:27:37;3.40;99.90
48998;DHT22;34807;51.456;7.244;2023-12-07T02:30:03;3.40;99.90
48998;DHT22;34807;51.456;7.244;2023-12-07T02:32:29;3.40;99.90
48998;DHT22;34807;51.456;7.244;2023-12-07T02:34:55;3.40;99.90
48998;DHT22;34807;51.456;7.244;2023-12-07T02:37:21;3.40;99.90
48998;DHT22;34807;51.456;7.244;2023-12-07T02:39:47;3.50;99.90
48998;DHT22;34807;51.456;7.244;2023-12-07T02:42:13;3.40;99.90
48998;DHT22;34807;51.456;7.244;2023-12-07T02:44:40;3.40;99.90
48998;DHT22;34807;51.456;7.244;2023-12-07T02:47:05;3.40;99.90
48998;DHT22;34807;51.456;7.244;2023-12-07T02:49:31;3.40;99.90
48998;DHT22;34807;51.456;7.244;2023-12-07T02:51:56;3.40;99.90
48998;DHT22;34807;51.456;7.244;2023-12-07T02:54:22;3.40;99.90
48998;DHT22;34807;51.456;7.244;2023-12-07T02:56:48;3.40;99.90
48998;DHT22;34807;51.456;7.244;2023-12-07T02:59:13;3.50;99.90
48998;DHT22;34807;51.456;7.244;2023-12-07T03:01:39;3.40;99.90
48998;DHT22;34807;51.456;7.244;2023-12-07T03:04:04;3.40;99.90
48998;DHT22;34807;51.456;7.244;2023-12-07T03:06:30;3.40;99.90
48998;DHT22;34807;51.456;7.244;2023-12-07T03:08:55;3.40;99.90
48998;DHT22;34807;51.456;7.244;2023-12-07T03:11:21;3.40;99.90
48998;DHT22;34807;51.456;7.244;2023-12-07T03:13:46;3.40;99.90
48998;DHT22;34807;51.456;7.244;2023-12-07T03:16:12;3.40;99.90
48998;DHT22;34807;51.456;7.244;2023-12-07T03:18:37;3.40;99.90
48998;DHT22;34807;51.456;7.244;2023-12-07T03:21:03;3.40;99.90
48998;DHT22;34807;51.456;7.244;2023-12-07T03:23:29;3.40;99.90
48998;DHT22;34807;51.456;7.244;2023-12-07T03:25:54;3.40;99.90
48998;DHT22;34807;51.456;7.244;2023-12-07T03:28:20;3.40;99.90
48998;DHT22;34807;51.456;7.244;2023-12-07T03:30:45;3.40;99.90
48998;DHT22;34807;51.456;7.244;2023-12-07T03:33:11;3.40;99.90
48998;DHT22;34807;51.456;7.244;2023-12-07T03:35:36;3.40;99.90
48998;DHT22;34807;51.456;7.244;2023-12-07T03:38:02;3.40;99.90
48998;DHT22;34807;51.456;7.244;2023-12-07T03:40:27;3.40;99.90
48998;DHT22;34807;51.456;7.244;2023-12-07T03:42:53;3.40;99.90
48998;DHT22;34807;51.456;7.244;2023-12-07T03:45:18;3.40;99.90
48998;DHT22;34807;51.456;7.244;2023-12-07T03:47:44;3.40;99.90
48998;DHT22;34807;51.456;7.244;2023-12-07T03:50:09;3.40;99.90
48998;DHT22;34807;51.456;7.244;2023-12-07T03:52:35;3.40;99.90
48998;DHT22;34807;51.456;7.244;2023-12-07T03:55:00;3.40;99.90
48998;DHT22;34807;51.456;7.244;2023-12-07T03:57:26;3.40;99.90
48998;DHT22;34807;51.456;7.244;2023-12-07T03:59:51;3.40;99.90
48998;DHT22;34807;51.456;7.244;2023-12-07T04:02:19;3.40;99.90
48998;DHT22;34807;51.456;7.244;2023-12-07T04:04:44;3.40;99.90
48998;DHT22;34807;51.456;7.244;2023-12-07T04:07:10;3.40;99.90
48998;DHT22;34807;51.456;7.244;2023-12-07T04:09:35;3.40;99.90
48998;DHT22;34807;51.456;7.244;2023-12-07T04:12:01;3.40;99.90
48998;DHT22;34807;51.456;7.244;2023-12-07T04:14:26;3.40;99.90
48998;DHT22;34807;51.456;7.244;2023-12-07T04:16:53;3.40;99.90
48998;DHT22;34807;51.456;7.244;2023-12-07T04:19:18;3.40;99.90
48998;DHT22;34807;51.456;7.244;2023-12-07T04:21:44;3.40;99.90
48998;DHT22;34807;51.456;7.244;2023-12-07T04:24:09;3.40;99.90
48998;DHT22;34807;51.456;7.244;2023-12-07T04:26:35;3.40;99.90
48998;DHT22;34807;51.456;7.244;2023-12-07T04:29:00;3.40;99.90
48998;DHT22;34807;51.456;7.244;2023-12-07T04:31:26;3.40;99.90
48998;DHT22;34807;51.456;7.244;2023-12-07T04:33:51;3.40;99.90
48998;DHT22;34807;51.456;7.244;2023-12-07T04:36:17;3.40;99.90
48998;DHT22;34807;51.456;7.244;2023-12-07T04:38:42;3.40;99.90
48998;DHT22;34807;51.456;7.244;2023-12-07T04:41:08;3.40;99.90
48998;DHT22;34807;51.456;7.244;2023-12-07T04:43:33;3.40;99.90
48998;DHT22;34807;51.456;7.244;2023-12-07T04:45:59;3.40;99.90
48998;DHT22;34807;51.456;7.244;2023-12-07T04:48:24;3.40;99.90
48998;DHT22;34807;51.456;7.244;2023-12-07T04:50:51;3.40;99.90
48998;DHT22;34807;51.456;7.244;2023-12-07T04:53:16;3.40;99.90
48998;DHT22;34807;51.456;7.244;2023-12-07T04:55:42;3.40;99.90
48998;DHT22;34807;51.456;7.244;2023-12-07T04:58:12;3.40;99.90
48998;DHT22;34807;51.456;7.244;2023-12-07T05:00:37;3.40;99.90
48998;DHT22;34807;51.456;7.244;2023-12-07T05:03:03;3.40;99.90
48998;DHT22;34807;51.456;7.244;2023-12-07T05:05:29;3.40;99.90
48998;DHT22;34807;51.456;7.244;2023-12-07T05:07:54;3.40;99.90
48998;DHT22;34807;51.456;7.244;2023-12-07T05:10:20;3.40;99.90
48998;DHT22;34807;51.456;7.244;2023-12-07T05:12:45;3.40;99.90
48998;DHT22;34807;51.456;7.244;2023-12-07T05:15:11;3.40;99.90
48998;DHT22;34807;51.456;7.244;2023-12-07T05:17:36;3.40;99.90
48998;DHT22;34807;51.456;7.244;2023-12-07T05:20:02;3.40;99.90
48998;DHT22;34807;51.456;7.244;2023-12-07T05:22:30;3.50;99.90
48998;DHT22;34807;51.456;7.244;2023-12-07T05:24:55;3.40;99.90
48998;DHT22;34807;51.456;7.244;2023-12-07T05:27:21;3.50;99.90
48998;DHT22;34807;51.456;7.244;2023-12-07T05:29:46;3.50;99.90
48998;DHT22;34807;51.456;7.244;2023-12-07T05:32:12;3.50;99.90
48998;DHT22;34807;51.456;7.244;2023-12-07T05:34:37;3.50;99.90
48998;DHT22;34807;51.456;7.244;2023-12-07T05:37:03;3.50;99.90
48998;DHT22;34807;51.456;7.244;2023-12-07T05:39:29;3.40;99.90
48998;DHT22;34807;51.456;7.244;2023-12-07T05:41:55;3.50;99.90
48998;DHT22;34807;51.456;7.244;2023-12-07T05:44:21;3.50;99.90
48998;DHT22;34807;51.456;7.244;2023-12-07T05:46:47;3.50;99.90
48998;DHT22;34807;51.456;7.244;2023-12-07T05:49:13;3.50;99.90
48998;DHT22;34807;51.456;7.244;2023-12-07T05:51:39;3.50;99.90
48998;DHT22;34807;51.456;7.244;2023-12-07T05:54:04;3.50;99.90
48998;DHT22;34807;51.456;7.244;2023-12-07T05:56:31;3.50;99.90
48998;DHT22;34807;51.456;7.244;2023-12-07T05:58:56;3.50;99.90
48998;DHT22;34807;51.456;7.244;2023-12-07T06:01:22;3.50;99.90
48998;DHT22;34807;51.456;7.244;2023-12-07T06:03:47;3.50;99.90
48998;DHT22;34807;51.456;7.244;2023-12-07T06:06:13;3.50;99.90
48998;DHT22;34807;51.456;7.244;2023-12-07T06:08:38;3.50;99.90
48998;DHT22;34807;51.456;7.244;2023-12-07T06:11:04;3.40;99.90
48998;DHT22;34807;51.456;7.244;2023-12-07T06:13:30;3.40;99.90
48998;DHT22;34807;51.456;7.244;2023-12-07T06:15:56;3.40;99.90
48998;DHT22;34807;51.456;7.244;2023-12-07T06:18:22;3.40;99.90
48998;DHT22;34807;51.456;7.244;2023-12-07T06:20:47;3.40;99.90
48998;DHT22;34807;51.456;7.244;2023-12-07T06:23:13;3.40;99.90
48998;DHT22;34807;51.456;7.244;2023-12-07T06:25:38;3.40;99.90
48998;DHT22;34807;51.456;7.244;2023-12-07T06:28:04;3.40;99.90
48998;DHT22;34807;51.456;7.244;2023-12-07T06:30:30;3.40;99.90
48998;DHT22;34807;51.456;7.244;2023-12-07T06:32:55;3.40;99.90
48998;DHT22;34807;51.456;7.244;2023-12-07T06:35:21;3.40;99.90
48998;DHT22;34807;51.456;7.244;2023-12-07T06:37:47;3.30;99.90
48998;DHT22;34807;51.456;7.244;2023-12-07T06:40:12;3.30;99.90
48998;DHT22;34807;51.456;7.244;2023-12-07T06:42:37;3.30;99.90
48998;DHT22;34807;51.456;7.244;2023-12-07T06:45:03;3.30;99.90
48998;DHT22;34807;51.456;7.244;2023-12-07T06:47:29;3.30;99.90
48998;DHT22;34807;51.456;7.244;2023-12-07T06:49:56;3.30;99.90
48998;DHT22;34807;51.456;7.244;2023-12-07T06:52:21;3.20;99.90
48998;DHT22;34807;51.456;7.244;2023-12-07T06:54:47;3.20;99.90
48998;DHT22;34807;51.456;7.244;2023-12-07T06:57:13;3.20;99.90
48998;DHT22;34807;51.456;7.244;2023-12-07T06:59:38;3.20;99.90
48998;DHT22;34807;51.456;7.244;2023-12-07T07:02:04;3.20;99.90
48998;DHT22;34807;51.456;7.244;2023-12-07T07:04:29;3.20;99.90
48998;DHT22;34807;51.456;7.244;2023-12-07T07:06:55;3.20;99.90
48998;DHT22;34807;51.456;7.244;2023-12-07T07:09:20;3.10;99.90
48998;DHT22;34807;51.456;7.244;2023-12-07T07:11:47;3.10;99.90
48998;DHT22;34807;51.456;7.244;2023-12-07T07:14:13;3.10;99.90
48998;DHT22;34807;51.456;7.244;2023-12-07T07:16:38;3.10;99.90
48998;DHT22;34807;51.456;7.244;2023-12-07T07:19:04;3.10;99.90
48998;DHT22;34807;51.456;7.244;2023-12-07T07:21:29;3.10;99.90
48998;DHT22;34807;51.456;7.244;2023-12-07T07:23:55;3.00;99.90
48998;DHT22;34807;51.456;7.244;2023-12-07T07:26:21;3.00;99.90
48998;DHT22;34807;51.456;7.244;2023-12-07T07:28:47;3.00;99.90
48998;DHT22;34807;51.456;7.244;2023-12-07T07:31:12;3.00;99.90
48998;DHT22;34807;51.456;7.244;2023-12-07T07:33:38;3.00;99.90
48998;DHT22;34807;51.456;7.244;2023-12-07T07:36:03;3.00;99.90
48998;DHT22;34807;51.456;7.244;2023-12-07T07:38:29;2.90;99.90
48998;DHT22;34807;51.456;7.244;2023-12-07T07:40:54;2.90;99.90
48998;DHT22;34807;51.456;7.244;2023-12-07T07:43:20;2.90;99.90
48998;DHT22;34807;51.456;7.244;2023-12-07T07:45:45;2.90;99.90
48998;DHT22;34807;51.456;7.244;2023-12-07T07:48:11;2.90;99.90
48998;DHT22;34807;51.456;7.244;2023-12-07T07:50:37;2.90;99.90
48998;DHT22;34807;51.456;7.244;2023-12-07T07:53:03;2.80;99.90
48998;DHT22;34807;51.456;7.244;2023-12-07T07:55:29;2.90;99.90
48998;DHT22;34807;51.456;7.244;2023-12-07T07:57:54;2.90;99.90
48998;DHT22;34807;51.456;7.244;2023-12-07T08:00:20;2.80;99.90
48998;DHT22;34807;51.456;7.244;2023-12-07T08:02:46;2.80;99.90
48998;DHT22;34807;51.456;7.244;2023-12-07T08:05:12;2.80;99.90
48998;DHT22;34807;51.456;7.244;2023-12-07T08:07:38;2.80;99.90
48998;DHT22;34807;51.456;7.244;2023-12-07T08:10:04;2.80;99.90
48998;DHT22;34807;51.456;7.244;2023-12-07T08:12:30;2.80;99.90
48998;DHT22;34807;51.456;7.244;2023-12-07T08:14:55;2.80;99.90
48998;DHT22;34807;51.456;7.244;2023-12-07T08:17:21;2.80;99.90
48998;DHT22;34807;51.456;7.244;2023-12-07T08:19:47;2.80;99.90
48998;DHT22;34807;51.456;7.244;2023-12-07T08:22:12;2.80;99.90
48998;DHT22;34807;51.456;7.244;2023-12-07T08:24:39;2.80;99.90
48998;DHT22;34807;51.456;7.244;2023-12-07T08:27:04;2.80;99.90
48998;DHT22;34807;51.456;7.244;2023-12-07T08:29:30;2.80;99.90
48998;DHT22;34807;51.456;7.244;2023-12-07T08:31:55;2.80;99.90
48998;DHT22;34807;51.456;7.244;2023-12-07T08:34:21;2.80;99.90
48998;DHT22;34807;51.456;7.244;2023-12-07T08:36:47;2.80;99.90
48998;DHT22;34807;51.456;7.244;2023-12-07T08:39:13;2.80;99.90
48998;DHT22;34807;51.456;7.244;2023-12-07T08:41:38;2.80;99.90
48998;DHT22;34807;51.456;7.244;2023-12-07T08:44:04;2.80;99.90
48998;DHT22;34807;51.456;7.244;2023-12-07T08:46:30;2.80;99.90
48998;DHT22;34807;51.456;7.244;2023-12-07T08:48:55;2.90;99.90
48998;DHT22;34807;51.456;7.244;2023-12-07T08:51:21;2.90;99.90
48998;DHT22;34807;51.456;7.244;2023-12-07T08:53:47;2.90;99.90
48998;DHT22;34807;51.456;7.244;2023-12-07T08:56:12;2.80;99.90
48998;DHT22;34807;51.456;7.244;2023-12-07T08:58:38;2.90;99.90
48998;DHT22;34807;51.456;7.244;2023-12-07T09:01:04;2.90;99.90
48998;DHT22;34807;51.456;7.244;2023-12-07T09:03:30;2.90;99.90
48998;DHT22;34807;51.456;7.244;2023-12-07T09:05:57;2.90;99.90
48998;DHT22;34807;51.456;7.244;2023-12-07T09:08:23;2.90;99.90
48998;DHT22;34807;51.456;7.244;2023-12-07T09:10:49;2.90;99.90
48998;DHT22;34807;51.456;7.244;2023-12-07T09:13:17;2.90;99.90
48998;DHT22;34807;51.456;7.244;2023-12-07T09:15:43;2.90;99.90
48998;DHT22;34807;51.456;7.244;2023-12-07T09:18:09;3.00;99.90
48998;DHT22;34807;51.456;7.244;2023-12-07T09:20:36;2.90;99.90
48998;DHT22;34807;51.456;7.244;2023-12-07T09:23:04;3.00;99.90
48998;DHT22;34807;51.456;7.244;2023-12-07T09:25:30;3.00;99.90
48998;DHT22;34807;51.456;7.244;2023-12-07T09:27:56;3.00;99.90
48998;DHT22;34807;51.456;7.244;2023-12-07T09:30:22;3.00;99.90
48998;DHT22;34807;51.456;7.244;2023-12-07T09:32:47;3.00;99.90
48998;DHT22;34807;51.456;7.244;2023-12-07T09:35:13;3.00;99.90
48998;DHT22;34807;51.456;7.244;2023-12-07T09:37:44;3.00;99.90
48998;DHT22;34807;51.456;7.244;2023-12-07T09:40:19;3.00;99.90
48998;DHT22;34807;51.456;7.244;2023-12-07T09:42:45;3.00;99.90
48998;DHT22;34807;51.456;7.244;2023-12-07T09:45:11;3.10;99.90
48998;DHT22;34807;51.456;7.244;2023-12-07T09:47:37;3.10;99.90
48998;DHT22;34807;51.456;7.244;2023-12-07T09:50:07;3.10;99.90
48998;DHT22;34807;51.456;7.244;2023-12-07T09:52:34;3.10;99.90
48998;DHT22;34807;51.456;7.244;2023-12-07T09:55:00;3.10;99.90
48998;DHT22;34807;51.456;7.244;2023-12-07T09:57:26;3.10;99.90
48998;DHT22;34807;51.456;7.244;2023-12-07T09:59:52;3.10;99.90
48998;DHT22;34807;51.456;7.244;2023-12-07T10:02:17;3.20;99.90
48998;DHT22;34807;51.456;7.244;2023-12-07T10:04:43;3.20;99.90
48998;DHT22;34807;51.456;7.244;2023-12-07T10:07:08;3.20;99.90
48998;DHT22;34807;51.456;7.244;2023-12-07T10:09:43;3.20;99.90
48998;DHT22;34807;51.456;7.244;2023-12-07T10:12:08;3.20;99.90
48998;DHT22;34807;51.456;7.244;2023-12-07T10:14:35;3.20;99.90
48998;DHT22;34807;51.456;7.244;2023-12-07T10:17:01;3.20;99.90
48998;DHT22;34807;51.456;7.244;2023-12-07T10:19:26;3.20;99.90
48998;DHT22;34807;51.456;7.244;2023-12-07T10:21:53;3.20;99.90
48998;DHT22;34807;51.456;7.244;2023-12-07T10:24:22;3.20;99.90
48998;DHT22;34807;51.456;7.244;2023-12-07T10:26:49;3.30;99.90
48998;DHT22;34807;51.456;7.244;2023-12-07T10:29:18;3.30;99.90
48998;DHT22;34807;51.456;7.244;2023-12-07T10:31:48;3.30;99.90
48998;DHT22;34807;51.456;7.244;2023-12-07T10:34:17;3.30;99.90
48998;DHT22;34807;51.456;7.244;2023-12-07T10:36:44;3.30;99.90
48998;DHT22;34807;51.456;7.244;2023-12-07T10:39:10;3.30;99.90
48998;DHT22;34807;51.456;7.244;2023-12-07T10:41:35;3.30;99.90
48998;DHT22;34807;51.456;7.244;2023-12-07T10:44:05;3.30;99.90
48998;DHT22;34807;51.456;7.244;2023-12-07T10:46:32;3.30;99.90
48998;DHT22;34807;51.456;7.244;2023-12-07T10:49:00;3.40;99.90
48998;DHT22;34807;51.456;7.244;2023-12-07T10:53:55;3.30;99.90
48998;DHT22;34807;51.456;7.244;2023-12-07T10:56:28;3.40;99.90
48998;DHT22;34807;51.456;7.244;2023-12-07T10:58:55;3.40;99.90
48998;DHT22;34807;51.456;7.244;2023-12-07T11:01:21;3.40;99.90
48998;DHT22;34807;51.456;7.244;2023-12-07T11:03:46;3.40;99.90
48998;DHT22;34807;51.456;7.244;2023-12-07T11:06:14;3.40;99.90
48998;DHT22;34807;51.456;7.244;2023-12-07T11:08:44;3.40;99.90
48998;DHT22;34807;51.456;7.244;2023-12-07T11:13:59;3.40;99.90
48998;DHT22;34807;51.456;7.244;2023-12-07T11:16:31;3.40;99.90
48998;DHT22;34807;51.456;7.244;2023-12-07T11:19:00;3.50;99.90
48998;DHT22;34807;51.456;7.244;2023-12-07T11:21:26;3.50;99.90
48998;DHT22;34807;51.456;7.244;2023-12-07T11:23:52;3.50;99.90
48998;DHT22;34807;51.456;7.244;2023-12-07T11:26:24;3.50;99.90
48998;DHT22;34807;51.456;7.244;2023-12-07T11:28:50;3.50;99.90
48998;DHT22;34807;51.456;7.244;2023-12-07T11:31:15;3.50;99.90
48998;DHT22;34807;51.456;7.244;2023-12-07T11:33:41;3.50;99.90
48998;DHT22;34807;51.456;7.244;2023-12-07T11:36:08;3.60;99.90
48998;DHT22;34807;51.456;7.244;2023-12-07T11:38:35;3.60;99.90
48998;DHT22;34807;51.456;7.244;2023-12-07T11:41:01;3.60;99.90
48998;DHT22;34807;51.456;7.244;2023-12-07T11:46:09;3.60;99.90
48998;DHT22;34807;51.456;7.244;2023-12-07T11:48:35;3.60;99.90
48998;DHT22;34807;51.456;7.244;2023-12-07T11:51:03;3.60;99.90
48998;DHT22;34807;51.456;7.244;2023-12-07T11:53:33;3.60;99.90
48998;DHT22;34807;51.456;7.244;2023-12-07T11:55:59;3.70;99.90
48998;DHT22;34807;51.456;7.244;2023-12-07T11:58:26;3.70;99.90
48998;DHT22;34807;51.456;7.244;2023-12-07T12:00:52;3.70;99.90
48998;DHT22;34807;51.456;7.244;2023-12-07T12:03:19;3.70;99.90
48998;DHT22;34807;51.456;7.244;2023-12-07T12:05:45;3.70;99.90
48998;DHT22;34807;51.456;7.244;2023-12-07T12:08:11;3.70;99.90
48998;DHT22;34807;51.456;7.244;2023-12-07T12:10:37;3.70;99.90
48998;DHT22;34807;51.456;7.244;2023-12-07T12:13:03;3.70;99.90
48998;DHT22;34807;51.456;7.244;2023-12-07T12:15:28;3.70;99.90
48998;DHT22;34807;51.456;7.244;2023-12-07T12:17:57;3.80;99.90
48998;DHT22;34807;51.456;7.244;2023-12-07T12:20:23;3.70;99.90
48998;DHT22;34807;51.456;7.244;2023-12-07T12:22:49;3.70;99.90
48998;DHT22;34807;51.456;7.244;2023-12-07T12:25:15;3.70;99.90
48998;DHT22;34807;51.456;7.244;2023-12-07T12:27:40;3.70;99.90
48998;DHT22;34807;51.456;7.244;2023-12-07T12:30:06;3.80;99.90
48998;DHT22;34807;51.456;7.244;2023-12-07T12:32:53;3.80;99.90
48998;DHT22;34807;51.456;7.244;2023-12-07T12:35:18;3.80;99.90
48998;DHT22;34807;51.456;7.244;2023-12-07T12:37:44;3.70;99.90
48998;DHT22;34807;51.456;7.244;2023-12-07T12:40:13;3.70;99.90
48998;DHT22;34807;51.456;7.244;2023-12-07T12:42:42;3.80;99.90
48998;DHT22;34807;51.456;7.244;2023-12-07T12:45:08;3.70;99.90
48998;DHT22;34807;51.456;7.244;2023-12-07T12:47:34;3.70;99.90
48998;DHT22;34807;51.456;7.244;2023-12-07T12:50:00;3.80;99.90
48998;DHT22;34807;51.456;7.244;2023-12-07T12:52:26;3.70;99.90
48998;DHT22;34807;51.456;7.244;2023-12-07T12:54:55;3.80;99.90
48998;DHT22;34807;51.456;7.244;2023-12-07T12:57:20;3.70;99.90
48998;DHT22;34807;51.456;7.244;2023-12-07T12:59:46;3.80;99.90
48998;DHT22;34807;51.456;7.244;2023-12-07T13:02:13;3.70;99.90
48998;DHT22;34807;51.456;7.244;2023-12-07T13:04:39;3.70;99.90
48998;DHT22;34807;51.456;7.244;2023-12-07T13:07:05;3.70;99.90
48998;DHT22;34807;51.456;7.244;2023-12-07T13:09:31;3.70;99.90
48998;DHT22;34807;51.456;7.244;2023-12-07T13:11:57;3.70;99.90
48998;DHT22;34807;51.456;7.244;2023-12-07T13:14:23;3.70;99.90
48998;DHT22;34807;51.456;7.244;2023-12-07T13:16:48;3.70;99.90
48998;DHT22;34807;51.456;7.244;2023-12-07T13:19:14;3.70;99.90
48998;DHT22;34807;51.456;7.244;2023-12-07T13:21:39;3.70;99.90
48998;DHT22;34807;51.456;7.244;2023-12-07T13:24:05;3.80;99.90
48998;DHT22;34807;51.456;7.244;2023-12-07T13:26:32;3.70;99.90
48998;DHT22;34807;51.456;7.244;2023-12-07T13:28:58;3.70;99.90
48998;DHT22;34807;51.456;7.244;2023-12-07T13:31:24;3.70;99.90
48998;DHT22;34807;51.456;7.244;2023-12-07T13:33:51;3.70;99.90
48998;DHT22;34807;51.456;7.244;2023-12-07T13:36:17;3.80;99.90
48998;DHT22;34807;51.456;7.244;2023-12-07T13:38:43;3.70;99.90
48998;DHT22;34807;51.456;7.244;2023-12-07T13:41:09;3.70;99.90
48998;DHT22;34807;51.456;7.244;2023-12-07T13:43:34;3.70;99.90
48998;DHT22;34807;51.456;7.244;2023-12-07T13:46:00;3.70;99.90
48998;DHT22;34807;51.456;7.244;2023-12-07T13:48:25;3.70;99.90
48998;DHT22;34807;51.456;7.244;2023-12-07T13:50:52;3.80;99.90
48998;DHT22;34807;51.456;7.244;2023-12-07T13:53:17;3.70;99.90
48998;DHT22;34807;51.456;7.244;2023-12-07T13:55:44;3.70;99.90
48998;DHT22;34807;51.456;7.244;2023-12-07T13:58:10;3.70;99.90
48998;DHT22;34807;51.456;7.244;2023-12-07T14:00:36;3.70;99.90
48998;DHT22;34807;51.456;7.244;2023-12-07T14:03:02;3.70;99.90
48998;DHT22;34807;51.456;7.244;2023-12-07T14:05:29;3.70;99.90
48998;DHT22;34807;51.456;7.244;2023-12-07T14:07:55;3.70;99.90
48998;DHT22;34807;51.456;7.244;2023-12-07T14:10:21;3.70;99.90
48998;DHT22;34807;51.456;7.244;2023-12-07T14:12:47;3.70;99.90
48998;DHT22;34807;51.456;7.244;2023-12-07T14:15:13;3.70;99.90
48998;DHT22;34807;51.456;7.244;2023-12-07T14:17:38;3.70;99.90
48998;DHT22;34807;51.456;7.244;2023-12-07T14:22:29;3.70;99.90
48998;DHT22;34807;51.456;7.244;2023-12-07T14:24:55;3.70;99.90
48998;DHT22;34807;51.456;7.244;2023-12-07T14:27:20;3.70;99.90
48998;DHT22;34807;51.456;7.244;2023-12-07T14:29:46;3.70;99.90
48998;DHT22;34807;51.456;7.244;2023-12-07T14:32:12;3.70;99.90
48998;DHT22;34807;51.456;7.244;2023-12-07T14:34:37;3.70;99.90
48998;DHT22;34807;51.456;7.244;2023-12-07T14:37:03;3.70;99.90
48998;DHT22;34807;51.456;7.244;2023-12-07T14:39:30;3.70;99.90
48998;DHT22;34807;51.456;7.244;2023-12-07T14:41:56;3.70;99.90
48998;DHT22;34807;51.456;7.244;2023-12-07T14:44:22;3.70;99.90
48998;DHT22;34807;51.456;7.244;2023-12-07T14:46:48;3.70;99.90
48998;DHT22;34807;51.456;7.244;2023-12-07T14:49:15;3.70;99.90
48998;DHT22;34807;51.456;7.244;2023-12-07T14:51:40;3.70;99.90
48998;DHT22;34807;51.456;7.244;2023-12-07T14:54:06;3.70;99.90
48998;DHT22;34807;51.456;7.244;2023-12-07T14:56:32;3.70;99.90
48998;DHT22;34807;51.456;7.244;2023-12-07T14:59:01;3.70;99.90
48998;DHT22;34807;51.456;7.244;2023-12-07T15:01:26;3.60;99.90
48998;DHT22;34807;51.456;7.244;2023-12-07T15:03:52;3.70;99.90
48998;DHT22;34807;51.456;7.244;2023-12-07T15:06:18;3.60;99.90
48998;DHT22;34807;51.456;7.244;2023-12-07T15:08:43;3.60;99.90
48998;DHT22;34807;51.456;7.244;2023-12-07T15:11:09;3.60;99.90
48998;DHT22;34807;51.456;7.244;2023-12-07T15:13:35;3.60;99.90
48998;DHT22;34807;51.456;7.244;2023-12-07T15:16:00;3.60;99.90
48998;DHT22;34807;51.456;7.244;2023-12-07T15:18:26;3.60;99.90
48998;DHT22;34807;51.456;7.244;2023-12-07T15:20:55;3.60;99.90
48998;DHT22;34807;51.456;7.244;2023-12-07T15:23:20;3.60;99.90
48998;DHT22;34807;51.456;7.244;2023-12-07T15:25:46;3.60;99.90
48998;DHT22;34807;51.456;7.244;2023-12-07T15:28:11;3.50;99.90
48998;DHT22;34807;51.456;7.244;2023-12-07T15:30:39;3.50;99.90
48998;DHT22;34807;51.456;7.244;2023-12-07T15:33:05;3.50;99.90
48998;DHT22;34807;51.456;7.244;2023-12-07T15:35:30;3.50;99.90
48998;DHT22;34807;51.456;7.244;2023-12-07T15:37:56;3.50;99.90
48998;DHT22;34807;51.456;7.244;2023-12-07T15:40:23;3.40;99.90
48998;DHT22;34807;51.456;7.244;2023-12-07T15:42:49;3.40;99.90
48998;DHT22;34807;51.456;7.244;2023-12-07T15:45:14;3.40;99.90
48998;DHT22;34807;51.456;7.244;2023-12-07T15:47:40;3.40;99.90
48998;DHT22;34807;51.456;7.244;2023-12-07T15:50:05;3.40;99.90
48998;DHT22;34807;51.456;7.244;2023-12-07T15:52:31;3.40;99.90